Time;durP1;ratioP1;P1;durP2;ratioP2;P2;SDS_P1;SDS_P2;PMS_P1;PMS_P2;Temp;Humidity;BMP_temperature;BMP_pressure;BME280_temperature;BME280_humidity;BME280_pressure;Samples;Min_cycle;Max_cycle;Signal;HPM_P1;HPM_P2
2021/11/25 00:01:31;;;;;;;18.75;10.38;;;;;;;;;;4995333;28;20054;-71
2021/11/25 00:03:58;;;;;;;22.65;13.32;;;;;;;;;;4995131;28;20061;-70
2021/11/25 00:06:25;;;;;;;21.05;11.80;;;;;;;;;;4994988;28;20109;-70
2021/11/25 00:08:51;;;;;;;23.70;12.45;;;;;;;;;;4995167;28;20046;-70
2021/11/25 00:11:18;;;;;;;27.95;13.15;;;;;;;;;;4994683;28;20097;-69
2021/11/25 00:13:45;;;;;;;22.85;11.63;;;;;;;;;;4992305;28;20054;-70
2021/11/25 00:16:11;;;;;;;22.73;12.35;;;;;;;;;;4975524;28;20514;-71
2021/11/25 00:18:38;;;;;;;22.45;11.77;;;;;;;;;;4975389;28;20050;-71
2021/11/25 00:21:05;;;;;;;18.67;11.65;;;;;;;;;;4975171;28;20058;-69
2021/11/25 00:23:32;;;;;;;21.05;12.13;;;;;;;;;;4975260;28;20050;-71
2021/11/25 00:25:58;;;;;;;20.70;11.57;;;;;;;;;;4988448;28;20050;-71
2021/11/25 00:28:25;;;;;;;20.83;11.60;;;;;;;;;;4976997;28;20058;-69
2021/11/25 00:30:52;;;;;;;18.17;11.18;;;;;;;;;;4974925;28;20050;-70
2021/11/25 00:33:18;;;;;;;19.67;11.48;;;;;;;;;;4975098;28;20183;-70
2021/11/25 00:35:45;;;;;;;17.35;10.10;;;;;;;;;;4975117;28;20113;-70
2021/11/25 00:38:11;;;;;;;21.08;11.50;;;;;;;;;;4975103;28;20101;-70
2021/11/25 00:40:38;;;;;;;21.88;12.55;;;;;;;;;;4974686;28;20101;-70
2021/11/25 00:43:05;;;;;;;23.40;13.15;;;;;;;;;;4974916;28;20418;-70
2021/11/25 00:45:31;;;;;;;21.63;12.35;;;;;;;;;;4974913;28;20050;-69
2021/11/25 00:47:58;;;;;;;20.30;10.93;;;;;;;;;;4974847;28;20102;-70
2021/11/25 00:50:25;;;;;;;23.38;11.88;;;;;;;;;;4974764;28;20055;-70
2021/11/25 00:52:51;;;;;;;21.58;11.55;;;;;;;;;;4975660;28;20133;-71
2021/11/25 00:55:18;;;;;;;21.63;11.40;;;;;;;;;;4994260;28;20046;-70
2021/11/25 00:57:45;;;;;;;18.58;11.15;;;;;;;;;;4994101;28;20054;-70
2021/11/25 01:00:16;;;;;;;19.80;10.98;;;;;;;;;;4994125;28;20173;-69
2021/11/25 01:02:43;;;;;;;22.35;12.00;;;;;;;;;;4993897;28;20488;-70
2021/11/25 01:05:10;;;;;;;18.92;10.38;;;;;;;;;;4994127;28;20054;-70
2021/11/25 01:07:37;;;;;;;23.13;10.68;;;;;;;;;;4993783;28;20456;-70
2021/11/25 01:10:05;;;;;;;19.63;11.63;;;;;;;;;;4993982;28;20105;-70
2021/11/25 01:12:37;;;;;;;19.08;11.80;;;;;;;;;;4993859;28;20058;-70
2021/11/25 01:15:05;;;;;;;21.25;12.15;;;;;;;;;;4993987;28;20054;-70
2021/11/25 01:17:32;;;;;;;20.50;11.98;;;;;;;;;;4993826;28;20452;-71
2021/11/25 01:29:25;;;;;;;17.75;10.43;;;;;;;;;;4973961;28;20154;-71
2021/11/25 01:31:52;;;;;;;21.48;12.65;;;;;;;;;;4974254;28;20109;-71
2021/11/25 01:34:18;;;;;;;21.33;12.00;;;;;;;;;;4973905;28;20492;-71
2021/11/25 01:36:45;;;;;;;20.50;12.57;;;;;;;;;;4974545;28;20074;-68
2021/11/25 01:39:12;;;;;;;19.52;10.82;;;;;;;;;;4973934;28;20101;-68
2021/11/25 01:41:38;;;;;;;20.60;11.82;;;;;;;;;;4973290;28;20391;-68
2021/11/25 01:44:05;;;;;;;20.20;11.43;;;;;;;;;;4973706;28;20051;-68
2021/11/25 01:46:32;;;;;;;24.88;13.38;;;;;;;;;;4973920;28;20106;-68
2021/11/25 01:48:59;;;;;;;20.80;11.52;;;;;;;;;;4973878;28;20050;-67
2021/11/25 01:51:25;;;;;;;18.33;11.35;;;;;;;;;;4973724;28;20059;-68
2021/11/25 01:53:52;;;;;;;21.52;11.98;;;;;;;;;;4973410;28;20047;-67
2021/11/25 01:56:19;;;;;;;19.63;11.43;;;;;;;;;;4973770;28;20105;-67
2021/11/25 01:58:46;;;;;;;18.92;11.10;;;;;;;;;;4973754;28;20101;-69
2021/11/25 02:01:15;;;;;;;21.83;12.07;;;;;;;;;;4972440;28;20050;-68
2021/11/25 02:03:42;;;;;;;21.80;12.23;;;;;;;;;;4973371;28;20109;-68
2021/11/25 02:06:09;;;;;;;22.27;12.15;;;;;;;;;;4973522;28;20055;-68
2021/11/25 02:08:36;;;;;;;25.13;11.32;;;;;;;;;;4973380;28;20490;-68
2021/11/25 02:11:03;;;;;;;21.33;11.73;;;;;;;;;;4973478;28;20051;-68
2021/11/25 02:13:30;;;;;;;21.73;11.55;;;;;;;;;;4973192;28;20465;-68
2021/11/25 02:15:57;;;;;;;22.40;12.10;;;;;;;;;;4973536;28;20050;-68
2021/11/25 02:18:25;;;;;;;18.95;12.15;;;;;;;;;;4973207;28;20082;-68
2021/11/25 02:20:55;;;;;;;20.08;11.27;;;;;;;;;;4973293;28;20650;-68
2021/11/25 02:23:22;;;;;;;17.65;11.20;;;;;;;;;;4972902;28;20050;-68
2021/11/25 02:25:50;;;;;;;20.02;12.07;;;;;;;;;;4973280;28;20058;-68
2021/11/25 02:28:22;;;;;;;20.33;12.15;;;;;;;;;;4973070;28;20113;-69
2021/11/25 02:30:48;;;;;;;18.98;10.75;;;;;;;;;;4973109;28;20121;-69
2021/11/25 02:33:15;;;;;;;23.08;12.02;;;;;;;;;;4973651;28;20473;-69
2021/11/25 02:35:43;;;;;;;21.25;12.15;;;;;;;;;;4973123;28;20093;-69
2021/11/25 02:38:10;;;;;;;24.63;12.98;;;;;;;;;;4973663;28;20051;-68
2021/11/25 02:40:57;;;;;;;21.55;12.02;;;;;;;;;;4973373;28;20046;-69
2021/11/25 02:43:27;;;;;;;19.35;11.25;;;;;;;;;;4972943;28;20502;-68
2021/11/25 02:45:56;;;;;;;22.25;12.48;;;;;;;;;;4973427;28;20058;-68
2021/11/25 02:48:28;;;;;;;19.25;10.63;;;;;;;;;;4971893;28;20104;-68
2021/11/25 02:50:55;;;;;;;22.13;13.18;;;;;;;;;;4972784;28;20094;-67
2021/11/25 02:53:25;;;;;;;20.33;10.98;;;;;;;;;;4973260;28;20501;-68
2021/11/25 02:55:57;;;;;;;20.88;11.68;;;;;;;;;;4973155;28;20501;-68
2021/11/25 02:58:24;;;;;;;21.05;11.65;;;;;;;;;;4972074;28;20193;-68
2021/11/25 03:00:53;;;;;;;25.17;12.88;;;;;;;;;;4971850;28;20051;-68
2021/11/25 03:03:20;;;;;;;23.58;12.50;;;;;;;;;;4973380;28;20055;-68
2021/11/25 03:05:48;;;;;;;20.60;11.93;;;;;;;;;;4973171;28;20055;-68
2021/11/25 03:08:16;;;;;;;22.05;11.73;;;;;;;;;;4972934;28;20054;-69
2021/11/25 03:10:46;;;;;;;19.88;11.95;;;;;;;;;;4972723;28;20058;-68
2021/11/25 03:13:16;;;;;;;20.52;11.55;;;;;;;;;;4970317;28;20093;-68
2021/11/25 03:15:43;;;;;;;21.50;12.50;;;;;;;;;;4972438;28;20051;-68
2021/11/25 03:18:10;;;;;;;22.17;11.98;;;;;;;;;;4972799;28;20126;-69
2021/11/25 03:20:38;;;;;;;19.40;12.07;;;;;;;;;;4972560;28;20468;-67
2021/11/25 03:23:05;;;;;;;22.95;13.23;;;;;;;;;;4972596;28;20051;-68
2021/11/25 03:25:33;;;;;;;23.52;12.25;;;;;;;;;;4972816;28;20113;-68
2021/11/25 03:28:00;;;;;;;21.50;12.13;;;;;;;;;;4972640;28;20043;-68
2021/11/25 03:30:27;;;;;;;25.10;13.10;;;;;;;;;;4972605;28;20055;-68
2021/11/25 03:32:53;;;;;;;22.65;11.95;;;;;;;;;;4972539;28;20054;-68
2021/11/25 03:35:20;;;;;;;21.33;12.45;;;;;;;;;;4972910;28;20106;-69
2021/11/25 03:37:47;;;;;;;22.70;11.73;;;;;;;;;;4972499;28;20097;-68
2021/11/25 03:40:14;;;;;;;21.92;11.70;;;;;;;;;;4972609;28;20082;-68
2021/11/25 03:42:40;;;;;;;23.85;12.40;;;;;;;;;;4972250;28;20063;-68
2021/11/25 03:45:08;;;;;;;19.55;11.63;;;;;;;;;;4972522;28;20051;-68
2021/11/25 03:47:35;;;;;;;21.55;11.93;;;;;;;;;;4972345;28;20117;-68
2021/11/25 03:50:02;;;;;;;21.25;12.30;;;;;;;;;;4971342;28;20486;-68
2021/11/25 03:52:28;;;;;;;24.08;13.07;;;;;;;;;;4971096;28;20098;-68
2021/11/25 03:54:55;;;;;;;23.05;12.40;;;;;;;;;;4972308;28;20214;-68
2021/11/25 03:57:23;;;;;;;23.40;12.07;;;;;;;;;;4972277;28;20098;-67
2021/11/25 03:59:50;;;;;;;25.30;13.32;;;;;;;;;;4972365;28;20050;-68
2021/11/25 04:02:18;;;;;;;21.88;11.52;;;;;;;;;;4972494;28;20502;-68
2021/11/25 04:04:44;;;;;;;23.42;12.57;;;;;;;;;;4974486;28;20058;-67
2021/11/25 04:07:11;;;;;;;23.48;13.65;;;;;;;;;;4975799;28;20046;-68
2021/11/25 04:09:38;;;;;;;22.80;12.65;;;;;;;;;;4975646;28;20055;-68
2021/11/25 04:12:05;;;;;;;22.08;12.48;;;;;;;;;;4975784;28;20050;-69
2021/11/25 04:14:32;;;;;;;23.20;12.95;;;;;;;;;;4975371;28;20050;-68
2021/11/25 04:16:59;;;;;;;24.73;13.80;;;;;;;;;;4975728;28;20105;-68
2021/11/25 04:19:26;;;;;;;21.50;13.32;;;;;;;;;;4975519;28;20051;-68
2021/11/25 04:21:53;;;;;;;23.33;13.23;;;;;;;;;;4975573;28;20111;-68
2021/11/25 04:24:20;;;;;;;22.75;12.23;;;;;;;;;;4975238;28;20133;-69
2021/11/25 04:26:47;;;;;;;23.58;13.55;;;;;;;;;;4975475;28;20058;-69
2021/11/25 04:29:14;;;;;;;21.20;12.75;;;;;;;;;;4975494;28;20113;-69
2021/11/25 04:37:14;;;;;;;25.10;13.60;;;;;;;;;;4975428;28;20051;-69
2021/11/25 04:39:41;;;;;;;22.60;13.00;;;;;;;;;;4975181;28;20059;-69
2021/11/25 04:42:09;;;;;;;24.35;13.38;;;;;;;;;;4975228;28;20057;-68
2021/11/25 04:44:37;;;;;;;24.90;13.57;;;;;;;;;;4974747;28;20061;-68
2021/11/25 04:47:09;;;;;;;26.00;13.02;;;;;;;;;;4975047;28;20050;-69
2021/11/25 04:49:36;;;;;;;22.15;13.38;;;;;;;;;;4974925;28;20130;-70
2021/11/25 04:52:04;;;;;;;23.45;13.35;;;;;;;;;;4974814;28;20540;-69
2021/11/25 04:54:30;;;;;;;24.73;13.85;;;;;;;;;;4974664;28;20063;-69
2021/11/25 04:56:57;;;;;;;22.92;13.10;;;;;;;;;;4974950;28;20058;-69
2021/11/25 04:59:23;;;;;;;24.05;13.32;;;;;;;;;;4974749;28;20054;-69
2021/11/25 05:01:50;;;;;;;23.15;12.30;;;;;;;;;;4974951;28;20047;-68
2021/11/25 05:04:17;;;;;;;25.30;13.55;;;;;;;;;;4974487;28;20058;-69
2021/11/25 05:06:43;;;;;;;23.35;13.13;;;;;;;;;;4974672;28;20105;-68
2021/11/25 05:09:11;;;;;;;25.38;14.27;;;;;;;;;;4974483;28;20497;-69
2021/11/25 05:11:42;;;;;;;21.35;12.45;;;;;;;;;;4974643;28;20055;-68
2021/11/25 05:14:09;;;;;;;27.02;13.55;;;;;;;;;;4974239;28;20105;-70
2021/11/25 05:16:35;;;;;;;26.42;14.23;;;;;;;;;;4974556;28;20054;-69
2021/11/25 05:19:02;;;;;;;25.73;13.77;;;;;;;;;;4974331;28;20051;-68
2021/11/25 05:21:29;;;;;;;23.50;13.50;;;;;;;;;;4974506;28;20055;-68
2021/11/25 05:23:55;;;;;;;26.90;14.68;;;;;;;;;;4974211;28;20047;-69
2021/11/25 05:26:22;;;;;;;27.35;14.25;;;;;;;;;;4974221;28;20056;-69
2021/11/25 05:28:49;;;;;;;27.80;14.55;;;;;;;;;;4974319;28;20115;-68
2021/11/25 05:31:15;;;;;;;30.25;15.82;;;;;;;;;;4974125;28;20101;-69
2021/11/25 05:33:42;;;;;;;30.00;15.18;;;;;;;;;;4973504;28;20057;-68
2021/11/25 05:36:09;;;;;;;29.02;15.68;;;;;;;;;;4974030;28;20501;-68
2021/11/25 05:38:35;;;;;;;24.98;15.15;;;;;;;;;;4974047;28;20117;-70
2021/11/25 05:41:02;;;;;;;28.65;14.98;;;;;;;;;;4974045;28;20105;-68
2021/11/25 05:43:29;;;;;;;32.58;16.30;;;;;;;;;;4973767;28;20529;-69
2021/11/25 05:45:55;;;;;;;27.52;14.80;;;;;;;;;;4973859;28;20649;-68
2021/11/25 05:48:23;;;;;;;25.63;14.95;;;;;;;;;;4973689;28;20050;-69
2021/11/25 05:50:50;;;;;;;29.50;15.93;;;;;;;;;;4973993;28;20441;-69
2021/11/25 05:53:23;;;;;;;28.48;14.55;;;;;;;;;;4973561;28;20134;-69
2021/11/25 05:55:50;;;;;;;25.27;14.75;;;;;;;;;;4973785;28;20055;-70
2021/11/25 05:58:16;;;;;;;28.55;16.35;;;;;;;;;;4973627;28;20047;-69
2021/11/25 06:00:43;;;;;;;30.02;15.93;;;;;;;;;;4973571;28;20109;-69
2021/11/25 06:03:10;;;;;;;30.83;17.35;;;;;;;;;;4973331;28;20605;-70
2021/11/25 06:05:37;;;;;;;30.80;15.88;;;;;;;;;;4972447;28;20051;-69
2021/11/25 06:08:04;;;;;;;27.63;15.05;;;;;;;;;;4973468;28;20121;-69
2021/11/25 06:10:31;;;;;;;28.60;16.77;;;;;;;;;;4973571;28;20059;-71
2021/11/25 06:12:58;;;;;;;29.20;15.35;;;;;;;;;;4973373;28;20402;-69
2021/11/25 06:15:25;;;;;;;27.52;15.48;;;;;;;;;;4973395;28;20051;-69
2021/11/25 06:17:52;;;;;;;26.77;15.35;;;;;;;;;;4973289;28;20561;-69
2021/11/25 06:20:19;;;;;;;27.05;14.40;;;;;;;;;;4973417;28;20125;-69
2021/11/25 06:22:49;;;;;;;27.33;15.10;;;;;;;;;;4973127;28;20113;-69
2021/11/25 06:25:17;;;;;;;27.15;15.02;;;;;;;;;;4973324;28;20469;-69
2021/11/25 06:27:43;;;;;;;30.98;15.90;;;;;;;;;;4972803;28;20050;-69
2021/11/25 06:30:11;;;;;;;27.88;15.85;;;;;;;;;;4973203;28;20125;-69
2021/11/25 06:32:42;;;;;;;29.25;15.98;;;;;;;;;;4972108;28;20059;-69
2021/11/25 06:35:11;;;;;;;30.02;15.80;;;;;;;;;;4973111;28;20555;-69
2021/11/25 06:37:44;;;;;;;29.48;15.20;;;;;;;;;;4973119;28;20109;-69
2021/11/25 06:40:11;;;;;;;;;;;;;;;;;;4973571;28;20577;-69
2021/11/25 06:42:37;;;;;;;26.05;14.10;;;;;;;;;;4972923;28;19945;-69
2021/11/25 06:45:05;;;;;;;30.23;15.80;;;;;;;;;;4972895;28;20481;-69
2021/11/25 06:47:32;;;;;;;29.55;15.40;;;;;;;;;;4972911;28;20102;-69
2021/11/25 06:49:58;;;;;;;32.35;17.02;;;;;;;;;;4972872;28;20046;-69
2021/11/25 06:52:25;;;;;;;27.27;15.40;;;;;;;;;;4972910;28;20469;-69
2021/11/25 06:54:51;;;;;;;28.48;15.68;;;;;;;;;;4972694;28;20054;-70
2021/11/25 06:57:18;;;;;;;27.48;15.63;;;;;;;;;;4973219;28;20079;-69
2021/11/25 06:59:45;;;;;;;28.63;16.08;;;;;;;;;;4972747;28;20101;-69
2021/11/25 07:02:11;;;;;;;30.88;15.73;;;;;;;;;;4973045;28;20437;-69
2021/11/25 07:04:38;;;;;;;28.92;17.02;;;;;;;;;;4972380;28;20133;-68
2021/11/25 07:07:05;;;;;;;30.25;15.60;;;;;;;;;;4953800;28;20113;-68
2021/11/25 07:09:32;;;;;;;27.25;14.45;;;;;;;;;;4953686;28;20047;-67
2021/11/25 07:11:58;;;;;;;27.73;15.43;;;;;;;;;;4953455;28;20110;-68
2021/11/25 07:14:25;;;;;;;32.13;16.80;;;;;;;;;;4953567;28;20502;-71
2021/11/25 07:16:51;;;;;;;29.10;15.73;;;;;;;;;;4971212;28;20061;-69
2021/11/25 07:19:18;;;;;;;32.28;16.98;;;;;;;;;;4972111;28;20538;-67
2021/11/25 07:21:45;;;;;;;34.30;15.18;;;;;;;;;;4970868;28;20121;-66
2021/11/25 07:24:17;;;;;;;;;;;;;;;;;;4972981;28;20051;-65
2021/11/25 07:26:44;;;;;;;26.23;13.77;;;;;;;;;;4972231;28;19926;-65
2021/11/25 07:29:11;;;;;;;28.70;16.25;;;;;;;;;;4972425;28;20050;-65
2021/11/25 07:31:37;;;;;;;28.67;15.50;;;;;;;;;;4972063;28;20050;-65
2021/11/25 07:34:04;;;;;;;31.65;16.42;;;;;;;;;;4971260;28;20806;-65
2021/11/25 07:36:30;;;;;;;30.42;16.13;;;;;;;;;;4971547;28;20059;-67
2021/11/25 07:38:57;;;;;;;26.85;15.73;;;;;;;;;;4972486;28;20046;-66
2021/11/25 07:41:24;;;;;;;33.60;16.88;;;;;;;;;;4976022;28;20110;-68
2021/11/25 07:43:50;;;;;;;26.88;15.07;;;;;;;;;;4972955;28;20141;-68
2021/11/25 07:46:17;;;;;;;28.00;15.27;;;;;;;;;;4974036;28;20508;-68
2021/11/25 07:48:43;;;;;;;29.48;15.77;;;;;;;;;;4973222;28;20058;-68
2021/11/25 07:51:10;;;;;;;29.88;16.83;;;;;;;;;;4974251;28;20510;-68
2021/11/25 07:53:37;;;;;;;31.33;15.52;;;;;;;;;;4973830;28;20058;-68
2021/11/25 07:56:03;;;;;;;26.60;13.40;;;;;;;;;;4973886;28;20125;-68
2021/11/25 07:58:30;;;;;;;24.10;13.52;;;;;;;;;;4974211;28;20110;-68
2021/11/25 08:01:01;;;;;;;29.92;14.75;;;;;;;;;;4974218;28;20058;-68
2021/11/25 08:03:28;;;;;;;25.38;14.57;;;;;;;;;;4973757;28;20050;-68
2021/11/25 08:05:55;;;;;;;28.67;14.68;;;;;;;;;;4974018;28;20054;-69
2021/11/25 08:08:21;;;;;;;28.90;14.50;;;;;;;;;;4973299;28;20490;-68
2021/11/25 08:10:48;;;;;;;25.63;14.52;;;;;;;;;;4973949;28;20062;-68
2021/11/25 08:13:15;;;;;;;28.92;15.98;;;;;;;;;;4973005;28;20502;-70
2021/11/25 08:15:41;;;;;;;26.35;14.27;;;;;;;;;;4972888;28;20082;-68
2021/11/25 08:18:08;;;;;;;29.77;14.70;;;;;;;;;;4973475;28;20109;-68
2021/11/25 08:20:35;;;;;;;31.00;15.00;;;;;;;;;;4973225;28;20479;-67
2021/11/25 08:23:01;;;;;;;28.65;14.85;;;;;;;;;;4973616;28;20055;-67
2021/11/25 08:25:29;;;;;;;29.70;16.52;;;;;;;;;;4974308;28;20109;-68
2021/11/25 08:27:57;;;;;;;31.05;15.63;;;;;;;;;;4964710;28;20082;-69
2021/11/25 08:30:24;;;;;;;27.52;15.50;;;;;;;;;;4967853;28;20130;-71
2021/11/25 08:32:51;;;;;;;28.60;15.63;;;;;;;;;;4962854;28;20051;-70
2021/11/25 08:35:19;;;;;;;29.25;15.70;;;;;;;;;;4966648;28;21608;-68
2021/11/25 08:37:46;;;;;;;26.50;14.68;;;;;;;;;;4966054;28;20071;-70
2021/11/25 08:40:14;;;;;;;29.02;15.88;;;;;;;;;;4966479;28;20462;-69
2021/11/25 08:42:41;;;;;;;27.25;14.82;;;;;;;;;;4966081;28;20984;-69
2021/11/25 08:45:08;;;;;;;29.75;15.13;;;;;;;;;;4964551;28;20054;-69
2021/11/25 08:47:35;;;;;;;28.50;14.10;;;;;;;;;;4965786;28;20054;-69
2021/11/25 08:50:06;;;;;;;24.10;13.50;;;;;;;;;;4960520;28;20039;-70
2021/11/25 08:52:32;;;;;;;31.55;15.13;;;;;;;;;;4967518;28;20050;-69
2021/11/25 08:54:59;;;;;;;27.05;14.85;;;;;;;;;;4964021;28;20055;-69
2021/11/25 08:57:27;;;;;;;27.50;14.32;;;;;;;;;;4962289;28;20054;-68
2021/11/25 08:59:53;;;;;;;29.10;14.93;;;;;;;;;;4967164;28;20042;-70
2021/11/25 09:02:20;;;;;;;28.33;14.20;;;;;;;;;;4962311;28;20055;-69
2021/11/25 09:04:47;;;;;;;28.27;15.00;;;;;;;;;;4962709;28;20050;-68
2021/11/25 09:07:14;;;;;;;28.23;16.38;;;;;;;;;;4961836;28;20572;-69
2021/11/25 09:09:41;;;;;;;26.88;14.95;;;;;;;;;;4963871;28;20058;-68
2021/11/25 09:12:08;;;;;;;30.17;15.45;;;;;;;;;;4961493;28;20051;-68
2021/11/25 09:14:35;;;;;;;30.17;15.50;;;;;;;;;;4963389;28;20486;-68
2021/11/25 09:17:08;;;;;;;29.08;15.75;;;;;;;;;;4965633;28;20053;-70
2021/11/25 09:19:34;;;;;;;31.23;16.15;;;;;;;;;;4967898;28;20050;-68
2021/11/25 09:22:01;;;;;;;27.48;14.95;;;;;;;;;;4964360;28;20110;-70
2021/11/25 09:24:28;;;;;;;25.17;14.35;;;;;;;;;;4968444;28;20090;-69
2021/11/25 09:26:54;;;;;;;28.13;15.18;;;;;;;;;;4970364;28;20102;-68
2021/11/25 09:29:21;;;;;;;26.95;14.27;;;;;;;;;;4965669;28;20051;-70
2021/11/25 09:31:48;;;;;;;31.02;16.33;;;;;;;;;;4965496;28;20121;-69
2021/11/25 09:34:14;;;;;;;26.42;15.20;;;;;;;;;;4961438;28;20046;-70
2021/11/25 09:36:41;;;;;;;27.40;13.98;;;;;;;;;;4958859;28;20110;-69
2021/11/25 09:39:09;;;;;;;30.55;16.42;;;;;;;;;;4963155;28;20043;-73
2021/11/25 09:41:36;;;;;;;27.30;15.45;;;;;;;;;;4965745;28;20058;-72
2021/11/25 09:44:04;;;;;;;26.80;14.85;;;;;;;;;;4962940;28;20082;-72
2021/11/25 09:46:32;;;;;;;26.80;14.48;;;;;;;;;;4961931;28;20055;-72
2021/11/25 09:49:04;;;;;;;25.90;14.98;;;;;;;;;;4948040;28;20043;-72
2021/11/25 09:51:32;;;;;;;29.55;15.07;;;;;;;;;;4962555;28;20111;-71
2021/11/25 09:53:59;;;;;;;25.70;14.65;;;;;;;;;;4959289;28;20065;-72
2021/11/25 09:56:25;;;;;;;29.42;15.30;;;;;;;;;;4960552;28;20058;-74
2021/11/25 09:58:52;;;;;;;27.45;15.48;;;;;;;;;;4974257;28;20098;-73
2021/11/25 10:01:22;;;;;;;27.55;13.65;;;;;;;;;;4965240;28;20054;-73
2021/11/25 10:03:50;;;;;;;28.25;14.98;;;;;;;;;;4962397;28;20089;-74
2021/11/25 10:06:21;;;;;;;26.50;14.70;;;;;;;;;;4962269;28;20113;-74
2021/11/25 10:08:48;;;;;;;29.70;15.15;;;;;;;;;;4962112;28;20051;-73
2021/11/25 10:11:16;;;;;;;26.85;14.95;;;;;;;;;;4964620;28;20056;-73
2021/11/25 10:13:55;;;;;;;26.02;14.27;;;;;;;;;;4961207;28;20098;-71
2021/11/25 10:16:30;;;;;;;27.95;15.10;;;;;;;;;;4964397;28;20051;-76
2021/11/25 10:18:58;;;;;;;30.85;15.63;;;;;;;;;;4963464;28;20047;-69
2021/11/25 10:21:27;;;;;;;27.23;14.93;;;;;;;;;;4960433;28;20105;-72
2021/11/25 10:23:56;;;;;;;27.90;15.10;;;;;;;;;;4960554;28;20054;-69
2021/11/25 10:26:25;;;;;;;28.35;15.02;;;;;;;;;;4962122;28;20110;-70
2021/11/25 10:29:04;;;;;;;27.10;15.02;;;;;;;;;;4961159;28;20106;-70
2021/11/25 10:31:35;;;;;;;28.65;15.80;;;;;;;;;;4962207;28;20059;-71
2021/11/25 10:34:16;;;;;;;31.98;16.38;;;;;;;;;;4963904;28;20047;-68
2021/11/25 10:39:36;;;;;;;;;;;;;;;;;;4962586;28;20522;-75
2021/11/25 10:42:06;;;;;;;29.60;16.55;;;;;;;;;;4961239;28;19922;-70
2021/11/25 10:44:40;;;;;;;28.70;15.38;;;;;;;;;;4959187;28;20134;-69
2021/11/25 10:47:12;;;;;;;27.48;14.32;;;;;;;;;;4958564;28;20047;-69
2021/11/25 10:49:51;;;;;;;31.42;16.25;;;;;;;;;;4962063;28;20082;-68
2021/11/25 10:52:37;;;;;;;32.75;16.30;;;;;;;;;;4960167;28;20113;-68
2021/11/25 10:55:15;;;;;;;25.73;15.55;;;;;;;;;;4958413;28;20059;-71
2021/11/25 10:57:52;;;;;;;30.00;15.57;;;;;;;;;;4961400;28;20110;-71
2021/11/25 11:00:23;;;;;;;29.50;15.57;;;;;;;;;;4964172;28;20082;-69
2021/11/25 11:03:12;;;;;;;27.05;13.98;;;;;;;;;;4963030;28;20046;-69
2021/11/25 11:05:48;;;;;;;29.00;15.60;;;;;;;;;;4962303;28;20137;-70
2021/11/25 11:08:16;;;;;;;26.10;14.88;;;;;;;;;;4963903;28;20501;-69
2021/11/25 11:10:56;;;;;;;28.95;15.82;;;;;;;;;;4959324;28;20105;-72
2021/11/25 11:16:12;;;;;;;27.50;15.05;;;;;;;;;;4965903;28;20109;-73
2021/11/25 11:18:53;;;;;;;26.50;15.27;;;;;;;;;;4965198;28;20058;-68
2021/11/25 11:21:40;;;;;;;27.45;15.23;;;;;;;;;;4963094;28;20051;-74
2021/11/25 11:24:08;;;;;;;30.35;16.27;;;;;;;;;;4969259;28;20204;-73
2021/11/25 11:26:39;;;;;;;26.20;15.27;;;;;;;;;;4963190;28;20055;-73
2021/11/25 11:29:07;;;;;;;25.77;14.75;;;;;;;;;;4961433;28;20053;-76
2021/11/25 11:31:35;;;;;;;26.38;15.48;;;;;;;;;;4965028;28;20536;-71
2021/11/25 11:34:03;;;;;;;28.25;14.70;;;;;;;;;;4966725;28;20051;-73
2021/11/25 11:36:30;;;;;;;28.23;16.02;;;;;;;;;;4966165;28;20103;-72
2021/11/25 11:39:01;;;;;;;27.42;14.68;;;;;;;;;;4962717;28;20461;-75
2021/11/25 11:41:31;;;;;;;26.75;15.23;;;;;;;;;;4963412;28;20055;-73
2021/11/25 11:44:01;;;;;;;29.15;14.70;;;;;;;;;;4965963;28;20106;-73
2021/11/25 11:46:31;;;;;;;26.20;14.85;;;;;;;;;;4957559;28;20047;-73
2021/11/25 11:48:59;;;;;;;27.40;15.73;;;;;;;;;;4966094;28;20051;-74
2021/11/25 11:51:26;;;;;;;26.08;15.10;;;;;;;;;;4967041;28;20047;-73
2021/11/25 11:53:56;;;;;;;28.52;15.98;;;;;;;;;;4965141;28;20055;-70
2021/11/25 11:56:41;;;;;;;26.20;14.50;;;;;;;;;;4965897;28;20514;-72
2021/11/25 11:59:09;;;;;;;27.20;15.60;;;;;;;;;;4962669;28;20462;-73
2021/11/25 12:01:37;;;;;;;28.33;16.45;;;;;;;;;;4961894;28;20102;-71
2021/11/25 12:04:09;;;;;;;28.42;14.85;;;;;;;;;;4964357;28;20051;-70
2021/11/25 12:06:45;;;;;;;30.92;16.27;;;;;;;;;;4963792;28;20545;-72
2021/11/25 12:09:14;;;;;;;31.80;17.27;;;;;;;;;;4962456;28;20055;-72
2021/11/25 12:11:55;;;;;;;29.13;16.67;;;;;;;;;;4963968;28;20102;-72
2021/11/25 12:14:26;;;;;;;28.63;15.77;;;;;;;;;;4961245;28;20102;-73
2021/11/25 12:16:55;;;;;;;28.60;16.60;;;;;;;;;;4967051;28;20058;-73
2021/11/25 12:19:32;;;;;;;29.98;16.60;;;;;;;;;;4962094;28;20489;-71
2021/11/25 12:22:09;;;;;;;27.58;15.75;;;;;;;;;;4960378;28;20047;-71
2021/11/25 12:24:51;;;;;;;31.02;15.82;;;;;;;;;;4966776;28;20051;-71
2021/11/25 12:27:37;;;;;;;27.13;15.40;;;;;;;;;;4962902;28;20055;-72
2021/11/25 12:30:11;;;;;;;30.40;15.63;;;;;;;;;;4962479;28;20046;-68
2021/11/25 12:32:45;;;;;;;32.15;16.20;;;;;;;;;;4960972;28;20058;-72
2021/11/25 12:35:12;;;;;;;30.92;18.38;;;;;;;;;;4964411;28;20113;-73
2021/11/25 12:37:42;;;;;;;31.20;16.20;;;;;;;;;;4961578;28;20121;-72
2021/11/25 12:40:14;;;;;;;30.35;16.55;;;;;;;;;;4961713;28;20062;-72
2021/11/25 12:42:45;;;;;;;31.13;17.65;;;;;;;;;;4961937;28;20055;-70
2021/11/25 12:45:31;;;;;;;29.65;16.42;;;;;;;;;;4960988;28;20054;-71
2021/11/25 12:48:10;;;;;;;31.60;16.20;;;;;;;;;;4961949;28;20078;-69
2021/11/25 12:50:41;;;;;;;33.97;16.98;;;;;;;;;;4967804;28;20046;-73
2021/11/25 12:53:13;;;;;;;30.08;16.77;;;;;;;;;;4963631;28;20050;-72
2021/11/25 12:55:42;;;;;;;33.28;17.88;;;;;;;;;;4964633;28;20061;-69
2021/11/25 12:58:10;;;;;;;36.65;18.17;;;;;;;;;;4962071;28;20108;-71
2021/11/25 13:00:40;;;;;;;32.35;16.92;;;;;;;;;;4961851;28;20486;-69
2021/11/25 13:03:09;;;;;;;29.52;16.77;;;;;;;;;;4964078;28;20498;-69
2021/11/25 13:05:38;;;;;;;29.25;16.45;;;;;;;;;;4962899;28;20506;-70
2021/11/25 13:08:07;;;;;;;32.97;16.92;;;;;;;;;;4958646;28;20051;-70
2021/11/25 13:10:40;;;;;;;30.50;16.13;;;;;;;;;;4960522;28;20050;-70
2021/11/25 13:13:17;;;;;;;29.10;15.90;;;;;;;;;;4961722;28;20058;-70
2021/11/25 13:16:14;;;;;;;27.85;16.05;;;;;;;;;;4969043;28;20110;-67
2021/11/25 13:19:07;;;;;;;31.42;16.08;;;;;;;;;;4956747;28;20069;-68
2021/11/25 13:21:38;;;;;;;33.00;16.47;;;;;;;;;;4961460;28;20055;-66
2021/11/25 13:24:13;;;;;;;27.73;15.27;;;;;;;;;;4964068;28;20453;-69
2021/11/25 13:26:56;;;;;;;31.73;17.67;;;;;;;;;;4959394;28;20051;-66
2021/11/25 13:29:37;;;;;;;31.58;16.65;;;;;;;;;;4962863;28;20112;-68
2021/11/25 13:32:06;;;;;;;32.60;17.00;;;;;;;;;;4962452;28;20055;-67
2021/11/25 13:34:36;;;;;;;29.38;15.75;;;;;;;;;;4959402;28;20109;-69
2021/11/25 13:37:05;;;;;;;31.55;16.73;;;;;;;;;;4961422;28;20117;-68
2021/11/25 13:39:44;;;;;;;32.65;16.67;;;;;;;;;;4959620;28;20051;-68
2021/11/25 13:42:14;;;;;;;31.40;15.88;;;;;;;;;;4959912;28;20102;-68
2021/11/25 13:44:44;;;;;;;30.27;16.80;;;;;;;;;;4963135;28;20098;-70
2021/11/25 13:47:32;;;;;;;30.00;17.50;;;;;;;;;;4963348;28;20047;-68
2021/11/25 13:50:05;;;;;;;31.33;16.27;;;;;;;;;;4958876;28;20047;-68
2021/11/25 13:52:35;;;;;;;27.77;15.65;;;;;;;;;;4961061;28;20078;-68
2021/11/25 13:55:08;;;;;;;30.67;17.60;;;;;;;;;;4959704;28;20506;-68
2021/11/25 13:57:37;;;;;;;30.67;16.45;;;;;;;;;;4959606;28;20055;-67
2021/11/25 14:00:12;;;;;;;27.15;15.73;;;;;;;;;;4961616;28;20495;-68
2021/11/25 14:02:40;;;;;;;28.77;15.85;;;;;;;;;;4959067;28;20514;-67
2021/11/25 14:05:08;;;;;;;28.92;16.25;;;;;;;;;;4960902;28;20051;-69
2021/11/25 14:07:35;;;;;;;31.08;18.65;;;;;;;;;;4959471;28;20063;-69
2021/11/25 14:10:18;;;;;;;30.08;17.10;;;;;;;;;;4960401;28;20047;-68
2021/11/25 14:12:50;;;;;;;36.85;18.98;;;;;;;;;;4961921;28;20422;-68
2021/11/25 14:15:27;;;;;;;35.20;17.92;;;;;;;;;;4959423;28;20062;-68
2021/11/25 14:17:54;;;;;;;36.38;19.92;;;;;;;;;;4962601;28;20047;-66
2021/11/25 14:20:25;;;;;;;33.20;16.83;;;;;;;;;;4961060;28;20502;-64
2021/11/25 14:22:53;;;;;;;34.78;17.23;;;;;;;;;;4959064;28;20055;-65
2021/11/25 14:25:26;;;;;;;35.58;17.92;;;;;;;;;;4963922;28;20078;-66
2021/11/25 14:30:37;;;;;;;32.28;17.70;;;;;;;;;;4958913;28;20137;-68
2021/11/25 14:33:05;;;;;;;32.45;18.05;;;;;;;;;;4960410;28;20046;-68
2021/11/25 14:35:40;;;;;;;33.30;17.27;;;;;;;;;;4958937;28;20059;-66
2021/11/25 14:38:12;;;;;;;34.10;17.20;;;;;;;;;;4962189;28;20501;-67
2021/11/25 14:40:43;;;;;;;36.78;19.08;;;;;;;;;;4965644;28;20051;-69
2021/11/25 14:43:15;;;;;;;43.78;21.02;;;;;;;;;;4958686;28;20098;-66
2021/11/25 14:45:43;;;;;;;34.80;20.10;;;;;;;;;;4960498;28;20056;-67
2021/11/25 14:48:21;;;;;;;31.60;17.38;;;;;;;;;;4958437;28;20507;-65
2021/11/25 14:50:58;;;;;;;29.45;17.35;;;;;;;;;;4961915;28;20051;-66
2021/11/25 14:53:29;;;;;;;34.38;18.70;;;;;;;;;;4960230;28;20051;-67